Latest Coastal Weather Observations for Weipa

IDQ60701

Issued at 2:02 pm EST Wednesday 24 May 2017 (issued every 10 minutes, with the page automatically refreshed every 10 minutes)

About coastal observations | Map of coastal stations | Coastal observations for QLD | Marine services | Other Formats
Station Details ID: 027045 Name: WEIPA AERO Lat: -12.68 Lon: 141.92 Height: 17.96 m
Data from the previous 72 hours. | See also: Recent months at Weipa
Date/Time
EST
Temp
°C
Wind Pressure Rain since
9am
mm
Weather Cloud Vis
km
Sea
Height
m
Swell
Dir  Spd
kts
Gust
kts
hPa Trend Height
m
Period
s
Dir
24/02:00pm 31.2 ESE 14 24 1011.0 - 0.0 - Partly cloudy 10 - - - -
24/01:30pm 30.4 ESE 13 19 1011.6 - 0.0 - Cloudy 10 - - - -
24/01:00pm 30.3 E 12 16 1012.0 - 0.0 - Cloudy 10 - - - -
24/12:30pm 30.0 E 13 20 1012.3 - 0.0 - Cloudy 10 - - - -
24/12:00pm 30.0 ESE 12 18 1012.4 - 0.0 - Mostly cloudy 10 - - - -
24/11:30am 30.0 ESE 15 21 1012.8 - 0.0 - Partly cloudy 10 - - - -
24/11:00am 30.4 E 14 21 1013.1 - 0.0 - Partly cloudy 10 - - - -
24/10:30am 28.7 ESE 15 20 1013.4 - 0.0 - Partly cloudy 10 - - - -
24/10:00am 28.7 SE 14 20 1013.3 - 0.0 - - 10 - - - -
24/09:30am 28.2 SE 13 20 1013.4 - 0.0 - - 10 - - - -
24/09:00am 27.5 SE 11 17 1013.1 - 0.0 - - 10 - - - -
24/08:30am 26.2 ESE 11 15 1013.2 - 0.0 - - 10 - - - -
24/08:00am 25.4 ESE 7 11 1013.0 - 0.0 - - 10 - - - -
24/07:30am 24.0 SE 6 9 1012.8 - 0.0 - - 10 - - - -
24/07:00am 23.6 SE 7 10 1012.2 - 0.0 - - 10 - - - -
24/06:30am 23.3 SE 5 9 1012.0 - 0.0 - - 10 - - - -
24/06:00am 23.3 SE 7 10 1011.4 - 0.0 - - 10 - - - -
24/05:30am 23.3 SE 7 11 1011.3 - 0.0 - - 10 - - - -
24/05:00am 23.1 SE 7 10 1011.3 - 0.0 - - 10 - - - -
24/04:30am 22.7 SSE 4 7 1011.2 - 0.0 - - 10 - - - -
24/04:00am 22.3 SE 4 6 1011.2 - 0.0 - - 10 - - - -
24/03:30am 22.4 ESE 4 5 1011.4 - 0.0 - - 10 - - - -
24/03:00am 22.5 ESE 3 5 1011.4 - 0.0 - - 10 - - - -
24/02:30am 22.6 SE 4 5 1011.6 - 0.0 - - 10 - - - -
24/02:00am 23.1 ESE 5 6 1011.7 - 0.0 - - 10 - - - -
24/01:30am 23.3 ESE 5 7 1012.1 - 0.0 - - 10 - - - -
24/01:00am 23.7 ESE 7 9 1012.3 - 0.0 - - 10 - - - -
24/12:30am 23.8 ESE 7 10 1012.6 - 0.0 - - 10 - - - -
24/12:00am 24.0 ESE 6 9 1012.8 - 0.0 - - 10 - - - -
 
Date/Time
EST
Temp
°C
Wind Pressure Rain since
9am
mm
Weather Cloud Vis
km
Sea
Height
m
Swell
Dir  Spd
kts
Gust
kts
hPa Trend Height
m
Period
s
Dir
23/11:30pm 24.1 ESE 6 8 1013.1 - 0.0 - - 10 - - - -
23/11:00pm 24.5 E 6 9 1013.4 - 0.0 - - 10 - - - -
23/10:30pm 24.8 E 6 9 1013.4 - 0.0 - - 10 - - - -
23/10:00pm 25.0 E 7 12 1013.3 - 0.0 - - 10 - - - -
23/09:30pm 25.1 E 6 9 1012.9 - 0.0 - - 10 - - - -
23/09:00pm 25.4 E 6 10 1012.3 - 0.0 - - 10 - - - -
23/08:30pm 25.5 E 5 6 1012.2 - 0.0 - - 10 - - - -
23/08:00pm 25.8 E 5 7 1011.9 - 0.0 - - 10 - - - -
23/07:30pm 25.9 E 4 6 1011.5 - 0.0 - - 10 - - - -
23/07:00pm 26.4 ESE 3 3 1011.1 - 0.0 - - 10 - - - -
23/06:30pm 27.1 SSE 2 5 1010.8 - 0.0 - - 10 - - - -
23/06:00pm 28.1 SE 5 7 1010.3 - 0.0 - - 10 - - - -
23/05:30pm 29.0 ESE 7 10 1010.2 - 0.0 - - 10 - - - -
23/05:00pm 29.4 SE 7 10 1009.9 - 0.0 - - 10 - - - -
23/04:30pm 30.1 ESE 10 14 1009.7 - 0.0 - - 10 - - - -
23/04:00pm 30.8 ESE 10 14 1009.5 - 0.0 - - 10 - - - -
23/03:30pm 30.9 ESE 12 17 1009.5 - 0.0 - - 10 - - - -
23/03:00pm 31.2 ESE 12 18 1009.3 - 0.0 - - 10 - - - -
23/02:30pm 31.3 ESE 11 15 1009.6 - 0.0 - - 10 - - - -
23/02:00pm 30.3 ESE 10 17 1009.9 - 0.0 - - 10 - - - -
23/01:30pm 30.7 E 11 15 1010.5 - 0.0 - - 10 - - - -
23/01:00pm 30.2 ESE 11 17 1010.9 - 0.0 - - 10 - - - -
23/12:30pm 29.6 ESE 9 16 1011.6 - 0.0 - - 10 - - - -
23/12:00pm 29.2 SE 9 15 1012.0 - 0.0 - - 10 - - - -
23/11:30am 28.5 ESE 9 13 1012.7 - 0.0 - - 10 - - - -
23/11:00am 27.7 ESE 12 17 1013.1 - 0.0 - - 10 - - - -
23/10:30am 27.3 ESE 9 15 1013.3 - 0.0 - - 10 - - - -
23/10:00am 26.7 ESE 11 16 1013.6 - 0.0 - - 10 - - - -
23/09:30am 25.7 ESE 12 17 1013.7 - 0.0 - - 10 - - - -
23/09:00am 24.9 ESE 9 13 1013.7 - 0.0 - - 10 - - - -
23/08:30am 23.6 SE 6 9 1013.7 - 0.0 - - 10 - - - -
23/08:00am 22.7 SE 5 8 1013.3 - 0.0 - - 10 - - - -
23/07:30am 22.0 SE 5 6 1013.0 - 0.0 - - 10 - - - -
23/07:00am 21.3 SSE 3 5 1012.6 - 0.0 - - 10 - - - -
23/06:30am 21.1 SE 3 4 1012.4 - 0.0 - - 10 - - - -
23/06:00am 21.3 ESE 3 4 1012.0 - 0.0 - - 10 - - - -
23/05:30am 21.4 SE 3 4 1011.9 - 0.0 - - 10 - - - -
23/05:00am 21.6 SE 3 5 1011.8 - 0.0 - - 10 - - - -
23/04:30am 22.0 SE 4 7 1011.8 - 0.0 - - 10 - - - -
23/04:01am 21.7 ESE 3 6 1011.8 - 0.0 - - 10 - - - -
23/04:00am 21.7 ESE 3 6 1011.8 - 0.0 - - 10 - - - -
23/03:44am 20.8 SE 1 3 1011.9 - 0.0 - - 5 - - - -
23/03:30am 21.0 E 1 3 1012.0 - 0.0 - - 10 - - - -
23/03:00am 21.8 ESE 3 4 1011.8 - 0.0 - - 10 - - - -
23/02:30am 21.7 ESE 3 5 1012.0 - 0.0 - - 10 - - - -
23/02:00am 21.8 E 3 4 1012.3 - 0.0 - - 10 - - - -
23/01:30am 22.0 ESE 3 4 1012.5 - 0.0 - - 10 - - - -
23/01:00am 22.5 E 3 5 1013.0 - 0.0 - - 10 - - - -
23/12:30am 23.1 E 3 5 1013.0 - 0.0 - - 10 - - - -
23/12:00am 23.5 ESE 5 9 1012.8 - 0.0 - - 10 - - - -
 
Date/Time
EST
Temp
°C
Wind Pressure Rain since
9am
mm
Weather Cloud Vis
km
Sea
Height
m
Swell
Dir  Spd
kts
Gust
kts
hPa Trend Height
m
Period
s
Dir
22/11:30pm 23.8 E 6 9 1013.1 - 0.0 - - 10 - - - -
22/11:00pm 23.8 E 6 8 1013.2 - 0.0 - - 10 - - - -
22/10:30pm 23.9 E 5 6 1013.4 - 0.0 - - 10 - - - -
22/10:00pm 24.6 E 5 7 1013.5 - 0.0 - - 10 - - - -
22/09:30pm 25.2 E 6 9 1013.3 - 0.0 - - 10 - - - -
22/09:00pm 25.7 ESE 8 10 1012.9 - 0.0 - - 10 - - - -
22/08:30pm 26.1 ESE 7 10 1012.8 - 0.0 - - 10 - - - -
22/08:00pm 26.8 ESE 9 13 1012.2 - 0.0 - - 10 - - - -
22/07:30pm 27.4 ESE 9 13 1011.6 - 0.0 - - 10 - - - -
22/07:00pm 27.7 SE 7 11 1011.1 - 0.0 - - 10 - - - -
22/06:30pm 28.5 ESE 8 11 1010.6 - 0.0 - - 10 - - - -
22/06:00pm 29.6 ESE 10 14 1010.3 - 0.0 - - 10 - - - -
22/05:30pm 30.4 E 6 13 1010.1 - 0.0 - - 10 - - - -
22/05:00pm 31.1 E 11 15 1009.9 - 0.0 - - 10 - - - -
22/04:30pm 31.7 E 11 15 1009.7 - 0.0 - - 10 - - - -
22/04:00pm 32.3 ESE 12 18 1009.6 - 0.0 - - 10 - - - -
22/03:30pm 32.3 ESE 12 18 1009.6 - 0.0 - - 10 - - - -
22/03:00pm 32.4 ESE 12 17 1009.4 - 0.0 - - 10 - - - -
22/02:30pm 32.8 E 13 19 1009.8 - 0.0 - - 10 - - - -
22/02:00pm 32.5 E 11 18 1010.0 - 0.0 - - 10 - - - -
22/01:30pm 32.2 E 13 21 1010.4 - 0.0 - - 10 - - - -
22/01:00pm 32.2 ESE 11 15 1010.8 - 0.0 - - 10 - - - -
22/12:30pm 31.7 SE 9 14 1011.4 - 0.0 - - 10 - - - -
22/12:00pm 30.6 E 14 19 1011.8 - 0.0 - - 10 - - - -
22/11:30am 30.4 ESE 14 19 1012.5 - 0.0 - - 10 - - - -
22/11:00am 29.6 ESE 14 19 1012.7 - 0.0 - - 10 - - - -
22/10:30am 29.1 ESE 15 21 1012.9 - 0.0 - - 10 - - - -
22/10:00am 28.7 ESE 12 17 1013.0 - 0.0 - - 10 - - - -
22/09:30am 27.5 ESE 13 19 1013.0 - 0.0 - - 10 - - - -
22/09:00am 26.8 ESE 14 20 1012.8 - 0.0 - - 10 - - - -
22/08:30am 26.4 SE 11 16 1012.7 - 0.0 - - 10 - - - -
22/08:00am 25.3 SE 10 15 1012.6 - 0.0 - - 10 - - - -
22/07:30am 24.4 SE 9 14 1012.3 - 0.0 - - 10 - - - -
22/07:00am 23.6 SE 8 12 1012.0 - 0.0 - - 10 - - - -
22/06:30am 23.5 SE 8 11 1011.8 - 0.0 - - 10 - - - -
22/06:00am 23.2 SE 6 9 1011.4 - 0.0 - - 10 - - - -
22/05:30am 23.2 SE 7 9 1011.5 - 0.0 - - 10 - - - -
22/05:00am 23.3 SE 7 9 1011.4 - 0.0 - - 10 - - - -
22/04:30am 23.6 SE 7 10 1011.1 - 0.0 - - 10 - - - -
22/04:00am 23.7 SE 7 10 1010.9 - 0.0 - - 10 - - - -
22/03:30am 23.8 SE 7 10 1010.8 - 0.0 - - 10 - - - -
22/03:00am 23.8 SE 7 12 1010.8 - 0.0 - - 10 - - - -
22/02:30am 24.0 SE 6 10 1011.0 - 0.0 - - 10 - - - -
22/02:00am 23.9 SE 7 10 1011.1 - 0.0 - - 10 - - - -
22/01:30am 24.0 SE 7 12 1011.2 - 0.0 - - 10 - - - -
22/01:00am 24.1 SE 6 9 1011.5 - 0.0 - - 10 - - - -
22/12:30am 24.4 SE 7 10 1011.4 - 0.0 - - 10 - - - -
22/12:00am 24.6 ESE 8 13 1011.5 - 0.0 - - 10 - - - -
 
Date/Time
EST
Temp
°C
Wind Pressure Rain since
9am
mm
Weather Cloud Vis
km
Sea
Height
m
Swell
Dir  Spd
kts
Gust
kts
hPa Trend Height
m
Period
s
Dir
21/11:30pm 24.6 SE 7 10 1011.8 - 0.0 - - 10 - - - -
21/11:00pm 24.7 SE 7 9 1011.9 - 0.0 - - 10 - - - -
21/10:30pm 25.0 SE 7 11 1011.9 - 0.0 - - 10 - - - -
21/10:00pm 25.2 SE 6 10 1011.9 - 0.0 - - 10 - - - -
21/09:30pm 25.3 SE 5 8 1011.8 - 0.0 - - 10 - - - -
21/09:00pm 25.7 ESE 7 10 1011.5 - 0.0 - - 10 - - - -
21/08:30pm 26.2 ESE 8 11 1011.3 - 0.0 - - 10 - - - -
21/08:00pm 26.5 ESE 8 11 1010.8 - 0.0 - - 10 - - - -
21/07:30pm 27.1 ESE 11 18 1010.4 - 0.0 - - 10 - - - -
21/07:00pm 27.6 ESE 9 13 1009.9 - 0.0 - - 10 - - - -
21/06:30pm 28.2 ESE 9 13 1009.7 - 0.0 - - 10 - - - -
21/06:00pm 28.9 ESE 9 14 1008.9 - 0.0 - - 10 - - - -
21/05:30pm 29.6 ESE 11 17 1008.8 - 0.0 - - 10 - - - -
21/05:00pm 30.3 ESE 10 16 1008.6 - 0.0 - Cloudy 10 - - - -
21/04:30pm 30.3 ESE 11 19 1008.6 - 0.0 - Partly cloudy 10 - - - -
21/04:00pm 31.2 ESE 11 18 1008.3 - 0.0 - Partly cloudy 10 - - - -
21/03:30pm 30.9 ESE 12 17 1008.2 - 0.0 - Partly cloudy 10 - - - -
21/03:00pm 32.0 ESE 10 18 1008.1 - 0.0 - Mostly clear 10 - - - -
21/02:30pm 30.7 ESE 13 19 1008.7 - 0.0 - Cloudy 10 - - - -

Other Formats:

Comma delimited format used in spreadsheet applications
http://www.bom.gov.au/fwo/IDQ60701/IDQ60701.94170.axf

JavaScript Object Notation format (JSON) in row-major order
http://www.bom.gov.au/fwo/IDQ60701/IDQ60701.94170.json